sensor_id;sensor_type;location;lat;lon;timestamp;P1;durP1;ratioP1;P2;durP2;ratioP2
21034;SDS011;10676;50.848;3.272;2023-09-12T00:01:29;407.42;;;303.15;;
21034;SDS011;10676;50.848;3.272;2023-09-12T00:03:57;339.77;;;302.75;;
21034;SDS011;10676;50.848;3.272;2023-09-12T00:06:23;342.80;;;304.95;;
21034;SDS011;10676;50.848;3.272;2023-09-12T00:08:49;375.98;;;300.20;;
21034;SDS011;10676;50.848;3.272;2023-09-12T00:11:16;347.40;;;309.65;;
21034;SDS011;10676;50.848;3.272;2023-09-12T00:13:42;343.10;;;306.20;;
21034;SDS011;10676;50.848;3.272;2023-09-12T00:16:09;343.35;;;306.35;;
21034;SDS011;10676;50.848;3.272;2023-09-12T00:18:35;341.40;;;301.88;;
21034;SDS011;10676;50.848;3.272;2023-09-12T00:21:04;339.92;;;302.13;;
21034;SDS011;10676;50.848;3.272;2023-09-12T00:23:29;358.48;;;303.90;;
21034;SDS011;10676;50.848;3.272;2023-09-12T00:25:56;340.50;;;304.10;;
21034;SDS011;10676;50.848;3.272;2023-09-12T00:28:22;354.50;;;303.15;;
21034;SDS011;10676;50.848;3.272;2023-09-12T00:30:48;343.90;;;297.23;;
21034;SDS011;10676;50.848;3.272;2023-09-12T00:33:14;352.60;;;301.45;;
21034;SDS011;10676;50.848;3.272;2023-09-12T00:35:40;335.98;;;294.95;;
21034;SDS011;10676;50.848;3.272;2023-09-12T00:38:06;335.63;;;297.10;;
21034;SDS011;10676;50.848;3.272;2023-09-12T00:40:33;344.45;;;297.95;;
21034;SDS011;10676;50.848;3.272;2023-09-12T00:42:59;342.05;;;298.73;;
21034;SDS011;10676;50.848;3.272;2023-09-12T00:45:25;354.23;;;296.23;;
21034;SDS011;10676;50.848;3.272;2023-09-12T00:47:51;346.23;;;297.95;;
21034;SDS011;10676;50.848;3.272;2023-09-12T00:50:17;350.10;;;294.60;;
21034;SDS011;10676;50.848;3.272;2023-09-12T00:52:45;358.38;;;293.00;;
21034;SDS011;10676;50.848;3.272;2023-09-12T00:55:14;350.85;;;299.55;;
21034;SDS011;10676;50.848;3.272;2023-09-12T00:57:41;412.27;;;306.60;;
21034;SDS011;10676;50.848;3.272;2023-09-12T01:00:08;382.45;;;305.70;;
21034;SDS011;10676;50.848;3.272;2023-09-12T01:02:41;367.73;;;308.55;;
21034;SDS011;10676;50.848;3.272;2023-09-12T01:05:08;359.27;;;308.13;;
21034;SDS011;10676;50.848;3.272;2023-09-12T01:07:35;370.73;;;305.10;;
21034;SDS011;10676;50.848;3.272;2023-09-12T01:10:03;390.63;;;304.92;;
21034;SDS011;10676;50.848;3.272;2023-09-12T01:12:32;369.85;;;299.67;;
21034;SDS011;10676;50.848;3.272;2023-09-12T01:14:58;381.50;;;311.50;;
21034;SDS011;10676;50.848;3.272;2023-09-12T01:17:24;356.92;;;307.75;;
21034;SDS011;10676;50.848;3.272;2023-09-12T01:19:50;347.58;;;301.98;;
21034;SDS011;10676;50.848;3.272;2023-09-12T01:25:23;362.85;;;305.23;;
21034;SDS011;10676;50.848;3.272;2023-09-12T01:27:51;356.35;;;310.73;;
21034;SDS011;10676;50.848;3.272;2023-09-12T01:30:18;371.75;;;309.17;;
21034;SDS011;10676;50.848;3.272;2023-09-12T01:32:48;360.17;;;304.55;;
21034;SDS011;10676;50.848;3.272;2023-09-12T01:35:14;371.05;;;307.15;;
21034;SDS011;10676;50.848;3.272;2023-09-12T01:37:40;366.17;;;307.88;;
21034;SDS011;10676;50.848;3.272;2023-09-12T01:40:06;361.40;;;305.35;;
21034;SDS011;10676;50.848;3.272;2023-09-12T01:42:37;364.75;;;301.33;;
21034;SDS011;10676;50.848;3.272;2023-09-12T01:45:05;386.50;;;311.55;;
21034;SDS011;10676;50.848;3.272;2023-09-12T01:47:35;361.80;;;316.13;;
21034;SDS011;10676;50.848;3.272;2023-09-12T01:50:02;359.10;;;312.80;;
21034;SDS011;10676;50.848;3.272;2023-09-12T01:52:30;355.77;;;317.13;;
21034;SDS011;10676;50.848;3.272;2023-09-12T01:54:56;350.25;;;310.90;;
21034;SDS011;10676;50.848;3.272;2023-09-12T01:57:23;355.10;;;311.83;;
21034;SDS011;10676;50.848;3.272;2023-09-12T01:59:49;379.98;;;312.13;;
21034;SDS011;10676;50.848;3.272;2023-09-12T02:02:16;358.52;;;304.90;;
21034;SDS011;10676;50.848;3.272;2023-09-12T02:04:47;345.13;;;298.38;;
21034;SDS011;10676;50.848;3.272;2023-09-12T02:07:19;348.05;;;299.75;;
21034;SDS011;10676;50.848;3.272;2023-09-12T02:09:47;356.58;;;296.90;;
21034;SDS011;10676;50.848;3.272;2023-09-12T02:12:13;356.50;;;300.63;;
21034;SDS011;10676;50.848;3.272;2023-09-12T02:14:38;355.70;;;294.50;;
21034;SDS011;10676;50.848;3.272;2023-09-12T02:17:04;358.55;;;294.83;;
21034;SDS011;10676;50.848;3.272;2023-09-12T02:19:30;357.15;;;299.50;;
21034;SDS011;10676;50.848;3.272;2023-09-12T02:21:55;353.63;;;297.05;;
21034;SDS011;10676;50.848;3.272;2023-09-12T02:24:21;340.00;;;291.17;;
21034;SDS011;10676;50.848;3.272;2023-09-12T02:26:47;358.98;;;287.75;;
21034;SDS011;10676;50.848;3.272;2023-09-12T02:29:13;344.27;;;285.15;;
21034;SDS011;10676;50.848;3.272;2023-09-12T02:31:38;380.23;;;285.95;;
21034;SDS011;10676;50.848;3.272;2023-09-12T02:34:04;345.98;;;286.08;;
21034;SDS011;10676;50.848;3.272;2023-09-12T02:36:30;363.40;;;292.08;;
21034;SDS011;10676;50.848;3.272;2023-09-12T02:38:56;345.58;;;301.85;;
21034;SDS011;10676;50.848;3.272;2023-09-12T02:41:22;359.27;;;298.85;;
21034;SDS011;10676;50.848;3.272;2023-09-12T02:43:47;384.15;;;302.05;;
21034;SDS011;10676;50.848;3.272;2023-09-12T02:46:13;381.27;;;300.45;;
21034;SDS011;10676;50.848;3.272;2023-09-12T02:48:39;383.02;;;305.52;;
21034;SDS011;10676;50.848;3.272;2023-09-12T02:51:04;340.60;;;300.67;;
21034;SDS011;10676;50.848;3.272;2023-09-12T02:53:30;358.10;;;304.50;;
21034;SDS011;10676;50.848;3.272;2023-09-12T02:55:55;354.40;;;298.73;;
21034;SDS011;10676;50.848;3.272;2023-09-12T02:58:21;352.08;;;301.13;;
21034;SDS011;10676;50.848;3.272;2023-09-12T03:00:47;376.42;;;302.13;;
21034;SDS011;10676;50.848;3.272;2023-09-12T03:03:15;368.30;;;301.35;;
21034;SDS011;10676;50.848;3.272;2023-09-12T03:05:42;369.30;;;302.67;;
21034;SDS011;10676;50.848;3.272;2023-09-12T03:08:07;377.17;;;310.05;;
21034;SDS011;10676;50.848;3.272;2023-09-12T03:10:33;393.27;;;306.25;;
21034;SDS011;10676;50.848;3.272;2023-09-12T03:12:59;404.80;;;309.50;;
21034;SDS011;10676;50.848;3.272;2023-09-12T03:15:24;383.70;;;305.83;;
21034;SDS011;10676;50.848;3.272;2023-09-12T03:17:50;358.98;;;308.98;;
21034;SDS011;10676;50.848;3.272;2023-09-12T03:20:16;355.10;;;304.88;;
21034;SDS011;10676;50.848;3.272;2023-09-12T03:22:41;384.35;;;304.13;;
21034;SDS011;10676;50.848;3.272;2023-09-12T03:25:07;364.90;;;298.35;;
21034;SDS011;10676;50.848;3.272;2023-09-12T03:27:33;358.30;;;307.05;;
21034;SDS011;10676;50.848;3.272;2023-09-12T03:29:58;368.67;;;306.17;;
21034;SDS011;10676;50.848;3.272;2023-09-12T03:32:24;364.73;;;312.30;;
21034;SDS011;10676;50.848;3.272;2023-09-12T03:34:50;348.13;;;305.88;;
21034;SDS011;10676;50.848;3.272;2023-09-12T03:37:15;350.70;;;308.33;;
21034;SDS011;10676;50.848;3.272;2023-09-12T03:39:41;398.63;;;312.02;;
21034;SDS011;10676;50.848;3.272;2023-09-12T03:42:07;341.75;;;304.00;;
21034;SDS011;10676;50.848;3.272;2023-09-12T03:44:32;382.45;;;300.70;;
21034;SDS011;10676;50.848;3.272;2023-09-12T03:46:58;365.70;;;301.10;;
21034;SDS011;10676;50.848;3.272;2023-09-12T03:49:24;376.33;;;309.05;;
21034;SDS011;10676;50.848;3.272;2023-09-12T03:51:49;356.45;;;310.88;;
21034;SDS011;10676;50.848;3.272;2023-09-12T03:54:15;360.33;;;305.05;;
21034;SDS011;10676;50.848;3.272;2023-09-12T03:56:41;396.75;;;308.05;;
21034;SDS011;10676;50.848;3.272;2023-09-12T03:59:06;377.27;;;308.95;;
21034;SDS011;10676;50.848;3.272;2023-09-12T04:01:32;381.02;;;307.55;;
21034;SDS011;10676;50.848;3.272;2023-09-12T04:03:58;487.88;;;312.33;;
21034;SDS011;10676;50.848;3.272;2023-09-12T04:06:23;482.90;;;310.58;;
21034;SDS011;10676;50.848;3.272;2023-09-12T04:08:49;487.23;;;313.27;;
21034;SDS011;10676;50.848;3.272;2023-09-12T04:11:15;395.70;;;312.30;;
21034;SDS011;10676;50.848;3.272;2023-09-12T04:13:41;416.60;;;318.55;;
21034;SDS011;10676;50.848;3.272;2023-09-12T04:16:07;384.85;;;315.60;;
21034;SDS011;10676;50.848;3.272;2023-09-12T04:18:32;393.02;;;317.55;;
21034;SDS011;10676;50.848;3.272;2023-09-12T04:20:58;392.98;;;318.30;;
21034;SDS011;10676;50.848;3.272;2023-09-12T04:23:24;371.73;;;316.45;;
21034;SDS011;10676;50.848;3.272;2023-09-12T04:25:50;423.52;;;323.45;;
21034;SDS011;10676;50.848;3.272;2023-09-12T04:28:16;499.33;;;331.27;;
21034;SDS011;10676;50.848;3.272;2023-09-12T04:30:42;383.20;;;330.50;;
21034;SDS011;10676;50.848;3.272;2023-09-12T04:33:07;412.50;;;324.23;;
21034;SDS011;10676;50.848;3.272;2023-09-12T04:35:34;427.05;;;327.75;;
21034;SDS011;10676;50.848;3.272;2023-09-12T04:38:00;410.63;;;325.98;;
21034;SDS011;10676;50.848;3.272;2023-09-12T04:40:25;358.23;;;316.70;;
21034;SDS011;10676;50.848;3.272;2023-09-12T04:42:51;399.48;;;329.48;;
21034;SDS011;10676;50.848;3.272;2023-09-12T04:45:17;431.10;;;323.77;;
21034;SDS011;10676;50.848;3.272;2023-09-12T04:47:43;450.52;;;317.65;;
21034;SDS011;10676;50.848;3.272;2023-09-12T04:50:08;383.17;;;321.23;;
21034;SDS011;10676;50.848;3.272;2023-09-12T04:52:36;459.75;;;323.17;;
21034;SDS011;10676;50.848;3.272;2023-09-12T04:55:02;606.75;;;325.10;;
21034;SDS011;10676;50.848;3.272;2023-09-12T04:57:28;534.60;;;317.83;;
21034;SDS011;10676;50.848;3.272;2023-09-12T04:59:55;516.28;;;311.80;;
21034;SDS011;10676;50.848;3.272;2023-09-12T05:02:23;383.38;;;311.40;;
21034;SDS011;10676;50.848;3.272;2023-09-12T05:04:49;559.90;;;311.77;;
21034;SDS011;10676;50.848;3.272;2023-09-12T05:07:15;404.58;;;311.38;;
21034;SDS011;10676;50.848;3.272;2023-09-12T05:09:40;472.30;;;302.80;;
21034;SDS011;10676;50.848;3.272;2023-09-12T05:12:06;442.33;;;303.52;;
21034;SDS011;10676;50.848;3.272;2023-09-12T05:14:32;636.33;;;307.70;;
21034;SDS011;10676;50.848;3.272;2023-09-12T05:16:58;525.67;;;311.83;;
21034;SDS011;10676;50.848;3.272;2023-09-12T05:19:23;562.78;;;305.52;;
21034;SDS011;10676;50.848;3.272;2023-09-12T05:21:50;423.27;;;300.67;;
21034;SDS011;10676;50.848;3.272;2023-09-12T05:24:16;511.63;;;298.65;;
21034;SDS011;10676;50.848;3.272;2023-09-12T05:26:42;1252.63;;;305.92;;
21034;SDS011;10676;50.848;3.272;2023-09-12T05:29:08;434.38;;;299.70;;
21034;SDS011;10676;50.848;3.272;2023-09-12T05:31:33;957.33;;;302.13;;
21034;SDS011;10676;50.848;3.272;2023-09-12T05:33:59;414.00;;;298.70;;
21034;SDS011;10676;50.848;3.272;2023-09-12T05:36:25;389.70;;;297.08;;
21034;SDS011;10676;50.848;3.272;2023-09-12T05:38:51;588.60;;;297.10;;
21034;SDS011;10676;50.848;3.272;2023-09-12T05:41:16;414.98;;;304.00;;
21034;SDS011;10676;50.848;3.272;2023-09-12T05:43:42;463.92;;;300.02;;
21034;SDS011;10676;50.848;3.272;2023-09-12T05:46:07;679.85;;;303.80;;
21034;SDS011;10676;50.848;3.272;2023-09-12T05:48:33;839.47;;;299.92;;
21034;SDS011;10676;50.848;3.272;2023-09-12T05:50:59;796.47;;;292.77;;
21034;SDS011;10676;50.848;3.272;2023-09-12T05:53:24;618.75;;;290.65;;
21034;SDS011;10676;50.848;3.272;2023-09-12T05:55:50;437.80;;;288.20;;
21034;SDS011;10676;50.848;3.272;2023-09-12T05:58:16;473.05;;;282.00;;
21034;SDS011;10676;50.848;3.272;2023-09-12T06:00:41;543.60;;;282.95;;
21034;SDS011;10676;50.848;3.272;2023-09-12T06:03:07;439.65;;;274.42;;
21034;SDS011;10676;50.848;3.272;2023-09-12T06:05:33;371.42;;;273.98;;
21034;SDS011;10676;50.848;3.272;2023-09-12T06:07:58;385.02;;;270.05;;
21034;SDS011;10676;50.848;3.272;2023-09-12T06:10:24;367.30;;;266.80;;
21034;SDS011;10676;50.848;3.272;2023-09-12T06:12:50;444.27;;;262.83;;
21034;SDS011;10676;50.848;3.272;2023-09-12T06:15:16;402.58;;;281.48;;
21034;SDS011;10676;50.848;3.272;2023-09-12T06:17:41;371.35;;;276.40;;
21034;SDS011;10676;50.848;3.272;2023-09-12T06:20:07;396.27;;;294.85;;
21034;SDS011;10676;50.848;3.272;2023-09-12T06:22:34;387.48;;;275.98;;
21034;SDS011;10676;50.848;3.272;2023-09-12T06:25:00;372.92;;;280.33;;
21034;SDS011;10676;50.848;3.272;2023-09-12T06:27:26;360.70;;;279.88;;
21034;SDS011;10676;50.848;3.272;2023-09-12T06:29:52;353.50;;;279.75;;
21034;SDS011;10676;50.848;3.272;2023-09-12T06:32:17;412.45;;;278.15;;
21034;SDS011;10676;50.848;3.272;2023-09-12T06:34:43;416.58;;;281.85;;
21034;SDS011;10676;50.848;3.272;2023-09-12T06:37:13;372.67;;;281.50;;
21034;SDS011;10676;50.848;3.272;2023-09-12T06:39:39;347.92;;;273.25;;
21034;SDS011;10676;50.848;3.272;2023-09-12T06:42:05;391.20;;;277.25;;
21034;SDS011;10676;50.848;3.272;2023-09-12T06:44:31;411.23;;;275.17;;
21034;SDS011;10676;50.848;3.272;2023-09-12T06:46:56;428.30;;;269.33;;
21034;SDS011;10676;50.848;3.272;2023-09-12T06:49:22;374.50;;;269.15;;
21034;SDS011;10676;50.848;3.272;2023-09-12T06:51:48;328.45;;;257.83;;
21034;SDS011;10676;50.848;3.272;2023-09-12T06:54:13;356.52;;;259.92;;
21034;SDS011;10676;50.848;3.272;2023-09-12T06:56:40;351.90;;;250.23;;
21034;SDS011;10676;50.848;3.272;2023-09-12T06:59:07;367.73;;;251.90;;
21034;SDS011;10676;50.848;3.272;2023-09-12T07:01:33;324.13;;;242.20;;
21034;SDS011;10676;50.848;3.272;2023-09-12T07:03:59;355.55;;;234.82;;
21034;SDS011;10676;50.848;3.272;2023-09-12T07:06:24;276.25;;;225.73;;
21034;SDS011;10676;50.848;3.272;2023-09-12T07:08:50;277.33;;;217.40;;
21034;SDS011;10676;50.848;3.272;2023-09-12T07:11:18;282.38;;;207.50;;
21034;SDS011;10676;50.848;3.272;2023-09-12T07:13:44;270.40;;;200.88;;
21034;SDS011;10676;50.848;3.272;2023-09-12T07:16:10;251.02;;;187.70;;
21034;SDS011;10676;50.848;3.272;2023-09-12T07:18:37;250.43;;;178.55;;
21034;SDS011;10676;50.848;3.272;2023-09-12T07:21:03;248.20;;;174.82;;
21034;SDS011;10676;50.848;3.272;2023-09-12T07:23:30;217.35;;;156.82;;
21034;SDS011;10676;50.848;3.272;2023-09-12T07:25:57;194.02;;;141.98;;
21034;SDS011;10676;50.848;3.272;2023-09-12T07:28:26;186.73;;;131.00;;
21034;SDS011;10676;50.848;3.272;2023-09-12T07:30:52;171.93;;;107.75;;
21034;SDS011;10676;50.848;3.272;2023-09-12T07:33:19;163.15;;;90.00;;
21034;SDS011;10676;50.848;3.272;2023-09-12T07:35:46;172.05;;;85.90;;
21034;SDS011;10676;50.848;3.272;2023-09-12T07:38:12;157.38;;;84.07;;
21034;SDS011;10676;50.848;3.272;2023-09-12T07:40:41;158.80;;;82.00;;
21034;SDS011;10676;50.848;3.272;2023-09-12T07:43:07;135.75;;;75.75;;
21034;SDS011;10676;50.848;3.272;2023-09-12T07:45:34;132.23;;;69.35;;
21034;SDS011;10676;50.848;3.272;2023-09-12T07:48:11;132.20;;;67.90;;
21034;SDS011;10676;50.848;3.272;2023-09-12T07:50:40;123.20;;;63.33;;
21034;SDS011;10676;50.848;3.272;2023-09-12T07:53:07;119.22;;;63.50;;
21034;SDS011;10676;50.848;3.272;2023-09-12T07:55:36;121.97;;;63.35;;
21034;SDS011;10676;50.848;3.272;2023-09-12T07:58:10;120.35;;;60.85;;
21034;SDS011;10676;50.848;3.272;2023-09-12T08:00:39;113.78;;;59.38;;
21034;SDS011;10676;50.848;3.272;2023-09-12T08:03:05;121.28;;;60.00;;
21034;SDS011;10676;50.848;3.272;2023-09-12T08:05:31;113.55;;;58.47;;
21034;SDS011;10676;50.848;3.272;2023-09-12T08:07:56;118.90;;;59.85;;
21034;SDS011;10676;50.848;3.272;2023-09-12T08:10:22;102.22;;;56.53;;
21034;SDS011;10676;50.848;3.272;2023-09-12T08:12:48;103.68;;;56.03;;
21034;SDS011;10676;50.848;3.272;2023-09-12T08:15:13;100.90;;;53.58;;
21034;SDS011;10676;50.848;3.272;2023-09-12T08:17:39;98.13;;;53.72;;
21034;SDS011;10676;50.848;3.272;2023-09-12T08:20:05;90.40;;;52.88;;
21034;SDS011;10676;50.848;3.272;2023-09-12T08:22:37;88.10;;;53.13;;
21034;SDS011;10676;50.848;3.272;2023-09-12T08:25:04;80.03;;;50.35;;
21034;SDS011;10676;50.848;3.272;2023-09-12T08:27:29;80.63;;;50.80;;
21034;SDS011;10676;50.848;3.272;2023-09-12T08:29:55;74.70;;;46.25;;
21034;SDS011;10676;50.848;3.272;2023-09-12T08:32:21;68.53;;;44.42;;
21034;SDS011;10676;50.848;3.272;2023-09-12T08:34:46;65.35;;;41.33;;
21034;SDS011;10676;50.848;3.272;2023-09-12T08:37:12;69.88;;;40.25;;
21034;SDS011;10676;50.848;3.272;2023-09-12T08:39:41;66.55;;;42.22;;
21034;SDS011;10676;50.848;3.272;2023-09-12T08:42:11;65.30;;;41.03;;
21034;SDS011;10676;50.848;3.272;2023-09-12T08:44:39;63.17;;;38.90;;
21034;SDS011;10676;50.848;3.272;2023-09-12T08:47:06;59.85;;;37.65;;
21034;SDS011;10676;50.848;3.272;2023-09-12T08:49:34;58.50;;;37.00;;
21034;SDS011;10676;50.848;3.272;2023-09-12T08:52:02;59.70;;;34.53;;
21034;SDS011;10676;50.848;3.272;2023-09-12T08:54:27;53.75;;;34.38;;
21034;SDS011;10676;50.848;3.272;2023-09-12T08:56:53;47.28;;;32.85;;
21034;SDS011;10676;50.848;3.272;2023-09-12T08:59:20;51.67;;;33.65;;
21034;SDS011;10676;50.848;3.272;2023-09-12T09:01:45;50.35;;;34.25;;
21034;SDS011;10676;50.848;3.272;2023-09-12T09:04:12;47.70;;;33.72;;
21034;SDS011;10676;50.848;3.272;2023-09-12T09:06:38;53.53;;;35.92;;
21034;SDS011;10676;50.848;3.272;2023-09-12T09:09:07;51.70;;;37.13;;
21034;SDS011;10676;50.848;3.272;2023-09-12T09:11:33;53.92;;;37.92;;
21034;SDS011;10676;50.848;3.272;2023-09-12T09:14:01;55.28;;;37.67;;
21034;SDS011;10676;50.848;3.272;2023-09-12T09:16:28;53.35;;;36.50;;
21034;SDS011;10676;50.848;3.272;2023-09-12T09:19:04;53.03;;;35.65;;
21034;SDS011;10676;50.848;3.272;2023-09-12T09:21:34;58.53;;;40.85;;
21034;SDS011;10676;50.848;3.272;2023-09-12T09:24:01;56.42;;;37.30;;
21034;SDS011;10676;50.848;3.272;2023-09-12T09:26:48;54.25;;;37.42;;
21034;SDS011;10676;50.848;3.272;2023-09-12T09:29:16;54.20;;;37.28;;
21034;SDS011;10676;50.848;3.272;2023-09-12T09:31:46;57.08;;;38.08;;
21034;SDS011;10676;50.848;3.272;2023-09-12T09:34:14;57.08;;;39.13;;
21034;SDS011;10676;50.848;3.272;2023-09-12T09:36:50;64.22;;;40.28;;
21034;SDS011;10676;50.848;3.272;2023-09-12T09:39:21;59.03;;;39.38;;
21034;SDS011;10676;50.848;3.272;2023-09-12T09:41:52;56.65;;;38.25;;
21034;SDS011;10676;50.848;3.272;2023-09-12T09:44:18;58.22;;;38.45;;
21034;SDS011;10676;50.848;3.272;2023-09-12T09:46:55;61.72;;;39.40;;
21034;SDS011;10676;50.848;3.272;2023-09-12T09:49:27;56.42;;;38.30;;
21034;SDS011;10676;50.848;3.272;2023-09-12T09:51:55;59.33;;;36.83;;
21034;SDS011;10676;50.848;3.272;2023-09-12T09:54:23;60.45;;;38.65;;
21034;SDS011;10676;50.848;3.272;2023-09-12T09:56:52;58.42;;;37.60;;
21034;SDS011;10676;50.848;3.272;2023-09-12T09:59:22;55.05;;;37.35;;
21034;SDS011;10676;50.848;3.272;2023-09-12T10:01:55;54.03;;;37.17;;
21034;SDS011;10676;50.848;3.272;2023-09-12T10:04:22;53.00;;;36.67;;
21034;SDS011;10676;50.848;3.272;2023-09-12T10:06:48;56.25;;;37.00;;
21034;SDS011;10676;50.848;3.272;2023-09-12T10:09:15;56.78;;;36.65;;
21034;SDS011;10676;50.848;3.272;2023-09-12T10:11:45;54.65;;;35.63;;
21034;SDS011;10676;50.848;3.272;2023-09-12T10:14:12;50.65;;;35.17;;
21034;SDS011;10676;50.848;3.272;2023-09-12T10:16:47;49.47;;;35.13;;
21034;SDS011;10676;50.848;3.272;2023-09-12T10:19:18;48.50;;;36.00;;
21034;SDS011;10676;50.848;3.272;2023-09-12T10:24:28;47.25;;;34.30;;
21034;SDS011;10676;50.848;3.272;2023-09-12T10:26:55;51.53;;;35.45;;
21034;SDS011;10676;50.848;3.272;2023-09-12T10:29:21;49.25;;;36.00;;
21034;SDS011;10676;50.848;3.272;2023-09-12T10:31:48;52.55;;;36.13;;
21034;SDS011;10676;50.848;3.272;2023-09-12T10:34:14;50.25;;;36.13;;
21034;SDS011;10676;50.848;3.272;2023-09-12T10:36:41;50.78;;;36.55;;
21034;SDS011;10676;50.848;3.272;2023-09-12T10:39:12;47.03;;;35.92;;
21034;SDS011;10676;50.848;3.272;2023-09-12T10:41:39;56.33;;;38.95;;
21034;SDS011;10676;50.848;3.272;2023-09-12T10:44:09;53.13;;;37.97;;
21034;SDS011;10676;50.848;3.272;2023-09-12T10:46:39;51.10;;;37.45;;
21034;SDS011;10676;50.848;3.272;2023-09-12T10:49:06;49.50;;;37.72;;
21034;SDS011;10676;50.848;3.272;2023-09-12T10:51:34;47.00;;;37.40;;
21034;SDS011;10676;50.848;3.272;2023-09-12T10:54:04;51.47;;;37.47;;
21034;SDS011;10676;50.848;3.272;2023-09-12T10:56:30;46.95;;;38.33;;
21034;SDS011;10676;50.848;3.272;2023-09-12T11:01:29;46.25;;;35.42;;
21034;SDS011;10676;50.848;3.272;2023-09-12T11:04:04;42.17;;;33.22;;
21034;SDS011;10676;50.848;3.272;2023-09-12T11:06:44;43.80;;;34.95;;
21034;SDS011;10676;50.848;3.272;2023-09-12T11:11:39;44.35;;;35.88;;
21034;SDS011;10676;50.848;3.272;2023-09-12T11:14:12;44.25;;;35.17;;
21034;SDS011;10676;50.848;3.272;2023-09-12T11:19:45;43.55;;;35.30;;
21034;SDS011;10676;50.848;3.272;2023-09-12T11:22:27;46.85;;;35.50;;
21034;SDS011;10676;50.848;3.272;2023-09-12T11:24:54;41.78;;;33.35;;
21034;SDS011;10676;50.848;3.272;2023-09-12T11:27:31;42.17;;;34.28;;
21034;SDS011;10676;50.848;3.272;2023-09-12T11:30:05;39.33;;;33.13;;
21034;SDS011;10676;50.848;3.272;2023-09-12T11:32:32;40.40;;;32.88;;
21034;SDS011;10676;50.848;3.272;2023-09-12T11:35:05;41.95;;;32.75;;
21034;SDS011;10676;50.848;3.272;2023-09-12T11:37:32;41.22;;;33.20;;
21034;SDS011;10676;50.848;3.272;2023-09-12T11:39:58;43.80;;;33.47;;
21034;SDS011;10676;50.848;3.272;2023-09-12T11:42:24;42.42;;;33.22;;
21034;SDS011;10676;50.848;3.272;2023-09-12T11:44:53;40.42;;;32.33;;
21034;SDS011;10676;50.848;3.272;2023-09-12T11:47:19;39.10;;;31.42;;
21034;SDS011;10676;50.848;3.272;2023-09-12T11:49:45;37.22;;;30.60;;
21034;SDS011;10676;50.848;3.272;2023-09-12T11:52:11;40.42;;;30.45;;
21034;SDS011;10676;50.848;3.272;2023-09-12T11:54:39;37.63;;;29.13;;
21034;SDS011;10676;50.848;3.272;2023-09-12T11:57:15;38.03;;;29.13;;
21034;SDS011;10676;50.848;3.272;2023-09-12T11:59:42;39.92;;;30.75;;
21034;SDS011;10676;50.848;3.272;2023-09-12T12:02:13;41.45;;;31.25;;
21034;SDS011;10676;50.848;3.272;2023-09-12T12:04:39;39.70;;;29.83;;
21034;SDS011;10676;50.848;3.272;2023-09-12T12:07:05;37.03;;;28.90;;
21034;SDS011;10676;50.848;3.272;2023-09-12T12:09:33;38.05;;;28.92;;
21034;SDS011;10676;50.848;3.272;2023-09-12T12:12:03;35.95;;;26.80;;
21034;SDS011;10676;50.848;3.272;2023-09-12T12:14:40;38.15;;;29.08;;
21034;SDS011;10676;50.848;3.272;2023-09-12T12:17:09;36.83;;;28.00;;
21034;SDS011;10676;50.848;3.272;2023-09-12T12:19:37;34.33;;;26.42;;
21034;SDS011;10676;50.848;3.272;2023-09-12T12:22:04;30.58;;;25.45;;
21034;SDS011;10676;50.848;3.272;2023-09-12T12:24:38;33.72;;;27.95;;
21034;SDS011;10676;50.848;3.272;2023-09-12T12:27:09;34.78;;;27.77;;
21034;SDS011;10676;50.848;3.272;2023-09-12T12:29:36;35.95;;;27.27;;
21034;SDS011;10676;50.848;3.272;2023-09-12T12:32:04;32.22;;;27.27;;
21034;SDS011;10676;50.848;3.272;2023-09-12T12:34:30;30.60;;;25.90;;
21034;SDS011;10676;50.848;3.272;2023-09-12T12:36:56;30.50;;;24.50;;
21034;SDS011;10676;50.848;3.272;2023-09-12T12:39:23;31.73;;;26.02;;
21034;SDS011;10676;50.848;3.272;2023-09-12T12:41:51;28.13;;;25.05;;
21034;SDS011;10676;50.848;3.272;2023-09-12T12:44:18;28.85;;;25.08;;
21034;SDS011;10676;50.848;3.272;2023-09-12T12:46:47;27.40;;;23.83;;
21034;SDS011;10676;50.848;3.272;2023-09-12T12:49:22;29.45;;;24.23;;
21034;SDS011;10676;50.848;3.272;2023-09-12T12:51:48;26.08;;;22.98;;
21034;SDS011;10676;50.848;3.272;2023-09-12T12:54:14;24.95;;;22.45;;
21034;SDS011;10676;50.848;3.272;2023-09-12T12:56:40;22.55;;;20.10;;
21034;SDS011;10676;50.848;3.272;2023-09-12T12:59:08;23.80;;;21.40;;
21034;SDS011;10676;50.848;3.272;2023-09-12T13:01:40;25.27;;;22.67;;
21034;SDS011;10676;50.848;3.272;2023-09-12T13:04:06;23.35;;;20.90;;
21034;SDS011;10676;50.848;3.272;2023-09-12T13:06:33;24.63;;;22.15;;
21034;SDS011;10676;50.848;3.272;2023-09-12T13:09:03;24.42;;;21.92;;
21034;SDS011;10676;50.848;3.272;2023-09-12T13:11:31;23.90;;;21.42;;
21034;SDS011;10676;50.848;3.272;2023-09-12T13:14:00;22.38;;;20.25;;
21034;SDS011;10676;50.848;3.272;2023-09-12T13:16:27;22.50;;;20.20;;
21034;SDS011;10676;50.848;3.272;2023-09-12T13:18:54;20.42;;;18.55;;
21034;SDS011;10676;50.848;3.272;2023-09-12T13:21:20;20.88;;;18.92;;
21034;SDS011;10676;50.848;3.272;2023-09-12T13:23:45;21.08;;;19.15;;
21034;SDS011;10676;50.848;3.272;2023-09-12T13:26:11;20.42;;;18.33;;
21034;SDS011;10676;50.848;3.272;2023-09-12T13:28:37;20.38;;;18.27;;
21034;SDS011;10676;50.848;3.272;2023-09-12T13:31:03;21.52;;;19.30;;
21034;SDS011;10676;50.848;3.272;2023-09-12T13:33:29;21.05;;;19.05;;
21034;SDS011;10676;50.848;3.272;2023-09-12T13:35:54;20.73;;;18.58;;
21034;SDS011;10676;50.848;3.272;2023-09-12T13:38:20;20.65;;;18.75;;
21034;SDS011;10676;50.848;3.272;2023-09-12T13:40:47;19.83;;;17.95;;
21034;SDS011;10676;50.848;3.272;2023-09-12T13:43:13;19.60;;;17.63;;
21034;SDS011;10676;50.848;3.272;2023-09-12T13:45:39;19.63;;;17.90;;
21034;SDS011;10676;50.848;3.272;2023-09-12T13:48:06;19.15;;;17.25;;
21034;SDS011;10676;50.848;3.272;2023-09-12T13:50:32;18.08;;;16.50;;
21034;SDS011;10676;50.848;3.272;2023-09-12T13:52:58;20.17;;;18.38;;
21034;SDS011;10676;50.848;3.272;2023-09-12T13:55:24;18.95;;;17.25;;
21034;SDS011;10676;50.848;3.272;2023-09-12T13:57:50;18.45;;;16.70;;
21034;SDS011;10676;50.848;3.272;2023-09-12T14:00:16;17.92;;;16.30;;
21034;SDS011;10676;50.848;3.272;2023-09-12T14:02:43;16.70;;;15.05;;
21034;SDS011;10676;50.848;3.272;2023-09-12T14:05:09;16.92;;;15.30;;
21034;SDS011;10676;50.848;3.272;2023-09-12T14:07:36;17.38;;;15.82;;
21034;SDS011;10676;50.848;3.272;2023-09-12T14:10:03;16.08;;;14.82;;
21034;SDS011;10676;50.848;3.272;2023-09-12T14:12:29;16.45;;;15.02;;
21034;SDS011;10676;50.848;3.272;2023-09-12T14:14:55;15.48;;;14.27;;
21034;SDS011;10676;50.848;3.272;2023-09-12T14:17:20;15.05;;;13.80;;
21034;SDS011;10676;50.848;3.272;2023-09-12T14:19:46;15.55;;;14.27;;
21034;SDS011;10676;50.848;3.272;2023-09-12T14:22:11;16.65;;;15.25;;